createdAt,value
2018-11-10T00:02:04.942Z,61.13
2018-11-10T00:04:33.040Z,61.20
2018-11-10T00:07:01.141Z,61.29
2018-11-10T00:09:29.236Z,61.26
2018-11-10T00:11:57.342Z,61.26
2018-11-10T00:14:25.440Z,61.26
2018-11-10T00:16:53.541Z,61.26
2018-11-10T00:19:21.634Z,61.18
2018-11-10T00:21:49.741Z,61.11
2018-11-10T00:24:17.826Z,61.10
2018-11-10T00:26:45.917Z,61.04
2018-11-10T00:29:14.003Z,61.01
2018-11-10T00:31:42.087Z,61.06
2018-11-10T00:34:10.348Z,61.15
2018-11-10T00:36:38.459Z,61.19
2018-11-10T00:39:08.262Z,61.19
2018-11-10T00:41:36.345Z,61.25
2018-11-10T00:44:04.517Z,61.36
2018-11-10T00:46:33.387Z,61.23
2018-11-10T00:49:01.860Z,61.27
2018-11-10T00:51:30.049Z,61.23
2018-11-10T00:53:58.261Z,61.20
2018-11-10T00:56:26.325Z,61.29
2018-11-10T00:58:54.416Z,61.47
2018-11-10T01:01:22.499Z,61.50
2018-11-10T01:03:50.624Z,61.50
2018-11-10T01:06:18.794Z,61.48
2018-11-10T01:08:47.086Z,61.39
2018-11-10T01:11:15.163Z,61.42
2018-11-10T01:13:43.257Z,61.34
2018-11-10T01:16:11.342Z,61.23
2018-11-10T01:18:39.425Z,61.14
2018-11-10T01:21:07.819Z,61.16
2018-11-10T01:23:35.941Z,61.11
2018-11-10T01:26:04.061Z,61.08
2018-11-10T01:28:32.161Z,61.05
2018-11-10T01:31:00.251Z,61.04
2018-11-10T01:33:28.348Z,60.95
2018-11-10T01:35:56.445Z,60.95
2018-11-10T01:38:24.538Z,60.88
2018-11-10T01:40:52.628Z,60.88
2018-11-10T01:43:20.738Z,60.93
2018-11-10T01:45:48.825Z,61.01
2018-11-10T01:48:16.918Z,61.01
2018-11-10T01:50:45.009Z,60.91
2018-11-10T01:53:13.101Z,60.86
2018-11-10T01:55:41.194Z,60.90
2018-11-10T01:58:09.283Z,60.96
2018-11-10T02:00:37.376Z,60.91
2018-11-10T02:03:05.473Z,60.86
2018-11-10T02:05:33.570Z,60.33
2018-11-10T02:08:01.664Z,60.68
2018-11-10T02:10:29.772Z,60.75
2018-11-10T02:12:57.870Z,60.94
2018-11-10T02:15:25.966Z,60.93
2018-11-10T02:17:54.051Z,60.84
2018-11-10T02:20:22.154Z,60.79
2018-11-10T02:22:50.249Z,61.03
2018-11-10T02:25:18.359Z,61.16
2018-11-10T02:27:46.458Z,61.03
2018-11-10T02:30:14.552Z,61.07
2018-11-10T02:32:42.867Z,60.94
2018-11-10T02:35:11.323Z,60.91
2018-11-10T02:37:40.041Z,60.79
2018-11-10T02:40:09.856Z,61.09
2018-11-10T02:42:37.945Z,61.19
2018-11-10T02:45:07.443Z,61.04
2018-11-10T02:47:35.555Z,61.08
2018-11-10T02:50:03.650Z,60.97
2018-11-10T02:52:31.780Z,60.84
2018-11-10T02:54:59.829Z,60.88
2018-11-10T02:57:27.930Z,61.02
2018-11-10T02:59:56.010Z,61.07
2018-11-10T03:02:24.099Z,60.98
2018-11-10T03:04:52.181Z,60.85
2018-11-10T03:07:20.282Z,60.97
2018-11-10T03:09:48.366Z,60.92
2018-11-10T03:12:16.460Z,60.94
2018-11-10T03:14:44.695Z,61.03
2018-11-10T03:17:12.810Z,61.03
2018-11-10T03:19:41.061Z,61.05
2018-11-10T03:22:09.146Z,61.03
2018-11-10T03:24:37.229Z,61.01
2018-11-10T03:27:05.595Z,60.93
2018-11-10T03:29:33.694Z,61.05
2018-11-10T03:32:02.004Z,61.04
2018-11-10T03:34:30.083Z,61.06
2018-11-10T03:36:58.189Z,61.07
2018-11-10T03:39:26.271Z,61.10
2018-11-10T03:41:54.359Z,61.07
2018-11-10T03:44:22.455Z,61.02
2018-11-10T03:46:50.544Z,60.91
2018-11-10T03:49:18.634Z,60.77
2018-11-10T03:51:46.715Z,60.84
2018-11-10T03:54:14.817Z,60.86
2018-11-10T03:56:42.904Z,60.80
2018-11-10T03:59:10.994Z,60.86
2018-11-10T04:01:39.095Z,60.88
2018-11-10T04:04:07.207Z,60.88
2018-11-10T04:06:35.255Z,60.91
2018-11-10T04:09:03.476Z,60.90
2018-11-10T04:11:31.563Z,60.92
2018-11-10T04:13:59.656Z,60.95
2018-11-10T04:16:27.738Z,60.99
2018-11-10T04:18:55.822Z,61.00
2018-11-10T04:21:23.904Z,60.95
2018-11-10T04:23:51.989Z,60.96
2018-11-10T04:26:20.074Z,60.98
2018-11-10T04:28:48.168Z,61.01
2018-11-10T04:31:16.246Z,61.08
2018-11-10T04:33:44.341Z,61.10
2018-11-10T04:36:12.668Z,61.18
2018-11-10T04:38:40.754Z,61.18
2018-11-10T04:41:08.835Z,61.18
2018-11-10T04:43:36.927Z,61.23
2018-11-10T04:46:05.002Z,61.30
2018-11-10T04:48:33.097Z,61.30
2018-11-10T04:51:01.173Z,61.33
2018-11-10T04:53:29.245Z,61.32
2018-11-10T04:55:57.334Z,61.36
2018-11-10T04:58:25.409Z,61.35
2018-11-10T05:00:53.507Z,61.31
2018-11-10T05:03:21.586Z,61.42
2018-11-10T05:05:49.668Z,61.48
2018-11-10T05:10:45.836Z,61.53
2018-11-10T05:13:13.916Z,61.53
2018-11-10T05:15:42.106Z,61.51
2018-11-10T05:18:10.125Z,61.65
2018-11-10T05:20:38.213Z,61.70
2018-11-10T05:23:06.337Z,61.68
2018-11-10T05:25:34.425Z,61.62
2018-11-10T05:28:02.510Z,61.69
2018-11-10T05:30:30.593Z,61.76
2018-11-10T05:32:58.674Z,61.79
2018-11-10T05:35:26.781Z,61.73
2018-11-10T05:37:54.853Z,61.81
2018-11-10T05:40:22.936Z,61.89
2018-11-10T05:42:51.010Z,61.85
2018-11-10T05:45:19.115Z,61.91
2018-11-10T05:47:47.205Z,61.93
2018-11-10T05:50:15.285Z,61.87
2018-11-10T05:52:43.368Z,61.85
2018-11-10T05:55:11.537Z,61.95
2018-11-10T05:57:40.161Z,62.10
2018-11-10T06:00:10.475Z,62.21
2018-11-10T06:02:38.654Z,62.55
2018-11-10T06:05:06.753Z,62.92
2018-11-10T06:07:34.836Z,63.11
2018-11-10T06:10:02.978Z,63.37
2018-11-10T06:12:31.026Z,63.44
2018-11-10T06:14:59.114Z,63.41
2018-11-10T06:17:27.347Z,63.55
2018-11-10T06:19:55.287Z,63.62
2018-11-10T06:22:23.381Z,63.75
2018-11-10T06:24:51.459Z,63.79
2018-11-10T06:27:19.557Z,63.81
2018-11-10T06:29:47.639Z,63.87
2018-11-10T06:32:15.725Z,63.98
2018-11-10T06:34:43.816Z,64.00
2018-11-10T06:37:11.903Z,63.99
2018-11-10T06:39:39.995Z,63.95
2018-11-10T06:42:12.009Z,63.83
2018-11-10T06:44:41.809Z,63.96
2018-11-10T06:47:11.006Z,63.94
2018-11-10T06:49:43.288Z,63.95
2018-11-10T06:52:16.056Z,63.83
2018-11-10T06:54:45.603Z,63.73
2018-11-10T06:57:16.863Z,64.03
2018-11-10T06:59:43.748Z,63.92
2018-11-10T07:02:12.581Z,64.05
2018-11-10T07:04:41.365Z,64.12
2018-11-10T07:07:10.065Z,64.00
2018-11-10T07:09:38.728Z,63.98
2018-11-10T07:12:07.194Z,63.90
2018-11-10T07:14:36.209Z,64.29
2018-11-10T07:17:04.843Z,64.09
2018-11-10T07:19:33.418Z,63.99
2018-11-10T07:22:02.196Z,63.84
2018-11-10T07:24:30.896Z,63.65
2018-11-10T07:26:59.333Z,63.70
2018-11-10T07:29:27.966Z,63.66
2018-11-10T07:31:56.703Z,63.62
2018-11-10T07:34:25.713Z,63.48
2018-11-10T07:36:54.418Z,63.26
2018-11-10T07:39:22.456Z,63.14
2018-11-10T07:41:50.539Z,62.91
2018-11-10T07:44:19.122Z,62.90
2018-11-10T07:46:47.784Z,63.00
2018-11-10T07:49:16.544Z,63.01
2018-11-10T07:51:44.993Z,62.93
2018-11-10T07:54:13.610Z,62.83
2018-11-10T07:56:42.035Z,62.92
2018-11-10T07:59:10.743Z,62.83
2018-11-10T08:01:39.534Z,62.83
2018-11-10T08:04:08.352Z,62.60
2018-11-10T08:06:37.471Z,62.67
2018-11-10T08:09:08.384Z,62.71
2018-11-10T08:11:37.267Z,62.59
2018-11-10T08:14:05.974Z,62.57
2018-11-10T08:16:34.672Z,62.55
2018-11-10T08:19:03.307Z,62.17
2018-11-10T08:21:31.726Z,62.43
2018-11-10T08:24:00.456Z,62.11
2018-11-10T08:26:29.204Z,62.26
2018-11-10T08:28:57.910Z,62.37
2018-11-10T08:31:26.463Z,62.34
2018-11-10T08:33:55.059Z,62.24
2018-11-10T08:36:23.761Z,62.20
2018-11-10T08:38:52.511Z,61.99
2018-11-10T08:41:21.415Z,61.76
2018-11-10T08:43:50.176Z,62.12
2018-11-10T08:46:19.006Z,61.99
2018-11-10T08:48:47.800Z,61.95
2018-11-10T08:51:16.609Z,61.84
2018-11-10T08:53:45.400Z,61.53
2018-11-10T08:56:14.277Z,61.64
2018-11-10T08:58:42.338Z,61.69
2018-11-10T09:01:10.477Z,61.78
2018-11-10T09:03:38.709Z,61.81
2018-11-10T09:06:06.916Z,62.02
2018-11-10T09:08:34.923Z,61.64
2018-11-10T09:11:03.052Z,61.72
2018-11-10T09:13:31.454Z,61.71
2018-11-10T09:15:59.717Z,61.62
2018-11-10T09:18:27.888Z,61.22
2018-11-10T09:20:55.961Z,60.90
2018-11-10T09:23:24.063Z,61.20
2018-11-10T09:25:52.169Z,61.38
2018-11-10T09:28:20.279Z,61.25
2018-11-10T09:30:48.462Z,61.16
2018-11-10T09:33:16.837Z,61.15
2018-11-10T09:35:45.011Z,60.94
2018-11-10T09:38:13.102Z,60.67
2018-11-10T09:40:41.288Z,59.84
2018-11-10T09:43:09.463Z,59.72
2018-11-10T09:45:37.799Z,59.02
2018-11-10T09:48:05.972Z,59.31
2018-11-10T09:50:34.134Z,59.26
2018-11-10T09:53:02.213Z,58.75
2018-11-10T09:55:31.020Z,59.32
2018-11-10T09:57:59.765Z,58.45
2018-11-10T10:00:28.463Z,59.34
2018-11-10T10:02:57.163Z,59.39
2018-11-10T10:05:25.996Z,58.43
2018-11-10T10:07:54.489Z,58.94
2018-11-10T10:10:22.985Z,59.20
2018-11-10T10:12:51.519Z,58.31
2018-11-10T10:15:20.181Z,58.41
2018-11-10T10:17:49.282Z,58.86
2018-11-10T10:20:19.388Z,58.56
2018-11-10T10:22:48.752Z,58.90
2018-11-10T10:25:17.890Z,59.03
2018-11-10T10:27:47.512Z,58.64
2018-11-10T10:30:25.156Z,58.35
2018-11-10T10:32:53.942Z,58.25
2018-11-10T10:35:23.181Z,58.29
2018-11-10T10:37:52.360Z,58.49
2018-11-10T10:40:21.230Z,58.06
2018-11-10T10:42:50.345Z,58.24
2018-11-10T10:45:23.484Z,58.07
2018-11-10T10:47:52.490Z,58.17
2018-11-10T10:50:22.158Z,58.29
2018-11-10T10:52:50.931Z,57.79
2018-11-10T10:55:20.132Z,58.14
2018-11-10T10:57:49.796Z,58.10
2018-11-10T11:00:23.562Z,58.17
2018-11-10T11:02:56.377Z,58.15
2018-11-10T11:05:30.594Z,57.80
2018-11-10T11:07:59.433Z,57.41
2018-11-10T11:10:28.266Z,57.71
2018-11-10T11:12:57.049Z,57.02
2018-11-10T11:15:25.718Z,57.35
2018-11-10T11:17:54.247Z,57.23
2018-11-10T11:20:23.868Z,57.62
2018-11-10T11:22:52.554Z,57.43
2018-11-10T11:25:21.229Z,57.76
2018-11-10T11:27:49.808Z,57.73
2018-11-10T11:30:18.405Z,57.53
2018-11-10T11:32:47.020Z,57.02
2018-11-10T11:35:15.922Z,57.31
2018-11-10T11:37:44.561Z,57.04
2018-11-10T11:40:14.749Z,56.50
2018-11-10T11:42:43.893Z,56.68
2018-11-10T11:45:13.282Z,56.90
2018-11-10T11:47:42.611Z,56.39
2018-11-10T11:50:15.319Z,56.11
2018-11-10T11:52:45.422Z,56.23
2018-11-10T11:55:14.424Z,56.46
2018-11-10T11:57:42.938Z,56.30
2018-11-10T12:00:13.424Z,55.88
2018-11-10T12:02:42.806Z,56.12
2018-11-10T12:05:12.624Z,56.33
2018-11-10T12:07:40.682Z,56.50
2018-11-10T12:10:10.119Z,56.01
2018-11-10T12:12:38.204Z,55.97
2018-11-10T12:15:06.883Z,56.02
2018-11-10T12:17:35.039Z,56.15
2018-11-10T12:20:03.149Z,55.59
2018-11-10T12:22:31.237Z,55.54
2018-11-10T12:24:59.522Z,55.83
2018-11-10T12:27:27.621Z,55.78
2018-11-10T12:29:56.129Z,55.58
2018-11-10T12:32:24.915Z,55.48
2018-11-10T12:34:54.269Z,55.50
2018-11-10T12:37:23.064Z,55.71
2018-11-10T12:39:52.337Z,55.97
2018-11-10T12:42:21.040Z,55.88
2018-11-10T12:44:49.717Z,55.60
2018-11-10T12:47:18.583Z,55.16
2018-11-10T12:49:47.118Z,55.95
2018-11-10T12:52:16.054Z,55.86
2018-11-10T12:54:45.144Z,55.34
2018-11-10T12:57:13.927Z,55.56
2018-11-10T12:59:42.949Z,55.98
2018-11-10T13:02:11.865Z,55.92
2018-11-10T13:04:40.653Z,55.65
2018-11-10T13:07:09.482Z,55.64
2018-11-10T13:09:38.210Z,55.19
2018-11-10T13:12:06.874Z,55.51
2018-11-10T13:14:35.331Z,55.36
2018-11-10T13:17:04.296Z,55.06
2018-11-10T13:19:32.825Z,55.10
2018-11-10T13:22:01.590Z,55.16
2018-11-10T13:24:30.307Z,55.42
2018-11-10T13:26:59.799Z,55.42
2018-11-10T13:29:28.891Z,55.60
2018-11-10T13:31:57.681Z,55.27
2018-11-10T13:34:25.685Z,54.83
2018-11-10T13:36:53.809Z,55.57
2018-11-10T13:39:21.965Z,55.29
2018-11-10T13:41:50.120Z,55.50
2018-11-10T13:44:18.378Z,55.83
2018-11-10T13:46:46.493Z,55.74
2018-11-10T13:49:14.674Z,55.92
2018-11-10T13:51:43.144Z,55.76
2018-11-10T13:54:11.023Z,55.85
2018-11-10T13:56:39.189Z,55.36
2018-11-10T13:59:10.117Z,55.45
2018-11-10T14:01:38.139Z,55.46
2018-11-10T14:04:06.397Z,55.40
2018-11-10T14:06:34.482Z,55.44
2018-11-10T14:09:02.593Z,56.04
2018-11-10T14:11:30.679Z,55.95
2018-11-10T14:16:51.737Z,56.45
2018-11-10T14:19:19.938Z,56.67
2018-11-10T14:21:48.075Z,56.45
2018-11-10T14:24:16.258Z,56.38
2018-11-10T14:26:44.420Z,56.71
2018-11-10T14:29:12.527Z,56.89
2018-11-10T14:31:40.686Z,56.92
2018-11-10T14:34:08.856Z,56.87
2018-11-10T14:36:36.953Z,56.78
2018-11-10T14:39:07.634Z,56.52
2018-11-10T14:41:35.845Z,56.61
2018-11-10T14:44:04.334Z,56.69
2018-11-10T14:46:32.396Z,56.74
2018-11-10T14:49:00.626Z,56.77
2018-11-10T14:51:28.738Z,57.15
2018-11-10T14:53:56.928Z,56.91
2018-11-10T14:56:25.111Z,57.22
2018-11-10T14:58:53.266Z,57.28
2018-11-10T15:01:21.650Z,57.56
2018-11-10T15:03:49.821Z,57.34
2018-11-10T15:06:17.999Z,57.51
2018-11-10T15:08:46.163Z,57.27
2018-11-10T15:11:14.361Z,57.06
2018-11-10T15:13:42.501Z,57.41
2018-11-10T15:16:10.610Z,57.56
2018-11-10T15:18:38.765Z,57.77
2018-11-10T15:21:06.981Z,57.78
2018-11-10T15:23:35.034Z,57.82
2018-11-10T15:26:03.189Z,57.86
2018-11-10T15:28:31.347Z,57.86
2018-11-10T15:30:59.444Z,57.68
2018-11-10T15:33:27.548Z,57.54
2018-11-10T15:35:55.673Z,57.56
2018-11-10T15:38:23.751Z,57.96
2018-11-10T15:40:51.917Z,58.04
2018-11-10T15:43:20.086Z,57.81
2018-11-10T15:45:48.173Z,58.08
2018-11-10T15:48:16.339Z,58.04
2018-11-10T15:50:44.520Z,58.12
2018-11-10T15:53:13.166Z,58.04
2018-11-10T15:55:41.227Z,58.41
2018-11-10T15:58:09.299Z,58.33
2018-11-10T16:00:37.386Z,58.47
2018-11-10T16:03:05.859Z,58.49
2018-11-10T16:05:33.914Z,58.51
2018-11-10T16:08:02.255Z,58.45
2018-11-10T16:10:30.459Z,58.62
2018-11-10T16:12:58.789Z,58.64
2018-11-10T16:15:26.944Z,58.66
2018-11-10T16:17:55.490Z,58.68
2018-11-10T16:20:23.657Z,58.70
2018-11-10T16:22:52.189Z,58.77
2018-11-10T16:25:20.508Z,58.76
2018-11-10T16:27:49.089Z,58.59
2018-11-10T16:30:18.332Z,58.47
2018-11-10T16:32:46.736Z,58.75
2018-11-10T16:35:14.884Z,59.09
2018-11-10T16:37:43.165Z,59.12
2018-11-10T16:40:13.598Z,59.29
2018-11-10T16:42:43.079Z,59.63
2018-11-10T16:45:11.897Z,59.81
2018-11-10T16:47:39.988Z,59.73
2018-11-10T16:52:36.639Z,59.97
2018-11-10T16:55:05.286Z,60.04
2018-11-10T16:57:33.357Z,59.97
2018-11-10T17:00:01.564Z,59.92
2018-11-10T17:02:29.804Z,60.08
2018-11-10T17:04:57.846Z,60.11
2018-11-10T17:07:25.937Z,60.20
2018-11-10T17:09:54.129Z,60.37
2018-11-10T17:12:22.230Z,60.50
2018-11-10T17:14:50.465Z,60.57
2018-11-10T17:17:18.536Z,60.48
2018-11-10T17:19:46.822Z,60.36
2018-11-10T17:22:15.017Z,60.31
2018-11-10T17:24:42.981Z,60.27
2018-11-10T17:27:11.122Z,60.30
2018-11-10T17:29:39.179Z,60.28
2018-11-10T17:32:07.272Z,60.23
2018-11-10T17:34:35.355Z,60.20
2018-11-10T17:37:03.526Z,60.04
2018-11-10T17:39:31.665Z,60.18
2018-11-10T17:41:59.805Z,60.08
2018-11-10T17:44:27.854Z,60.24
2018-11-10T17:46:55.932Z,60.28
2018-11-10T17:49:24.015Z,60.34
2018-11-10T17:51:52.124Z,60.29
2018-11-10T17:54:20.389Z,60.28
2018-11-10T17:56:48.475Z,60.24
2018-11-10T17:59:16.555Z,60.15
2018-11-10T18:01:44.827Z,60.17
2018-11-10T18:04:12.719Z,60.17
2018-11-10T18:06:40.899Z,60.16
2018-11-10T18:09:10.609Z,59.81
2018-11-10T18:11:38.671Z,60.06
2018-11-10T18:14:06.914Z,60.22
2018-11-10T18:16:34.988Z,60.15
2018-11-10T18:19:03.208Z,60.29
2018-11-10T18:21:31.269Z,60.22
2018-11-10T18:23:59.370Z,60.26
2018-11-10T18:26:27.452Z,60.41
2018-11-10T18:28:55.541Z,60.57
2018-11-10T18:31:23.642Z,60.64
2018-11-10T18:33:51.730Z,60.66
2018-11-10T18:36:19.805Z,60.48
2018-11-10T18:38:47.890Z,60.62
2018-11-10T18:41:15.969Z,60.64
2018-11-10T18:43:44.061Z,60.66
2018-11-10T18:46:12.138Z,60.61
2018-11-10T18:48:40.233Z,60.56
2018-11-10T18:51:08.321Z,60.51
2018-11-10T18:53:36.405Z,60.53
2018-11-10T18:56:04.493Z,60.53
2018-11-10T18:58:32.569Z,60.50
2018-11-10T19:01:00.650Z,60.45
2018-11-10T19:03:29.665Z,60.50
2018-11-10T19:05:57.746Z,60.54
2018-11-10T19:08:25.822Z,60.52
2018-11-10T19:10:53.918Z,60.46
2018-11-10T19:13:21.990Z,60.45
2018-11-10T19:15:50.077Z,60.44
2018-11-10T19:18:18.177Z,60.41
2018-11-10T19:20:46.257Z,60.33
2018-11-10T19:23:14.342Z,60.27
2018-11-10T19:25:42.430Z,60.48
2018-11-10T19:28:10.523Z,60.33
2018-11-10T19:30:38.635Z,60.47
2018-11-10T19:33:06.746Z,60.64
2018-11-10T19:35:34.843Z,60.67
2018-11-10T19:38:02.930Z,60.54
2018-11-10T19:40:31.035Z,60.54
2018-11-10T19:42:59.120Z,60.54
2018-11-10T19:45:27.216Z,60.49
2018-11-10T19:47:55.297Z,60.20
2018-11-10T19:50:23.585Z,60.30
2018-11-10T19:52:51.532Z,60.38
2018-11-10T19:55:19.632Z,60.57
2018-11-10T19:57:47.709Z,60.69
2018-11-10T20:00:18.347Z,60.79
2018-11-10T20:02:46.601Z,60.76
2018-11-10T20:05:14.778Z,60.73
2018-11-10T20:07:43.011Z,60.66
2018-11-10T20:10:11.949Z,60.67
2018-11-10T20:12:40.542Z,60.65
2018-11-10T20:15:10.179Z,60.65
2018-11-10T20:17:39.144Z,60.70
2018-11-10T20:20:08.037Z,60.71
2018-11-10T20:22:36.040Z,60.68
2018-11-10T20:25:04.690Z,60.48
2018-11-10T20:27:32.797Z,60.70
2018-11-10T20:30:00.873Z,60.86
2018-11-10T20:32:28.965Z,61.24
2018-11-10T20:34:57.049Z,61.36
2018-11-10T20:37:25.145Z,61.67
2018-11-10T20:39:53.230Z,62.11
2018-11-10T20:42:21.367Z,62.21
2018-11-10T20:44:49.487Z,62.30
2018-11-10T20:47:17.616Z,62.27
2018-11-10T20:49:45.705Z,62.28
2018-11-10T20:52:13.794Z,62.04
2018-11-10T20:54:41.879Z,62.03
2018-11-10T20:57:09.980Z,62.08
2018-11-10T20:59:38.075Z,62.42
2018-11-10T21:02:06.203Z,63.37
2018-11-10T21:04:34.317Z,64.06
2018-11-10T21:07:02.414Z,64.28
2018-11-10T21:09:30.498Z,64.39
2018-11-10T21:11:58.593Z,64.26
2018-11-10T21:14:26.681Z,64.12
2018-11-10T21:16:54.776Z,64.00
2018-11-10T21:19:22.949Z,63.94
2018-11-10T21:21:51.051Z,63.80
2018-11-10T21:24:19.130Z,63.82
2018-11-10T21:26:47.274Z,63.65
2018-11-10T21:29:15.397Z,63.81
2018-11-10T21:31:43.513Z,63.90
2018-11-10T21:34:11.658Z,64.60
2018-11-10T21:36:39.666Z,65.00
2018-11-10T21:39:09.643Z,65.09
2018-11-10T21:41:37.710Z,65.19
2018-11-10T21:44:05.978Z,65.28
2018-11-10T21:46:34.057Z,65.30
2018-11-10T21:49:02.158Z,65.49
2018-11-10T21:51:30.243Z,65.55
2018-11-10T21:53:58.685Z,65.65
2018-11-10T21:56:26.853Z,65.66
2018-11-10T21:58:54.875Z,65.49
2018-11-10T22:01:23.043Z,65.42
2018-11-10T22:03:51.198Z,65.56
2018-11-10T22:06:19.278Z,65.47
2018-11-10T22:08:47.391Z,65.57
2018-11-10T22:11:15.424Z,65.67
2018-11-10T22:13:43.507Z,65.74
2018-11-10T22:16:11.579Z,65.91
2018-11-10T22:18:39.782Z,65.90
2018-11-10T22:21:07.853Z,65.82
2018-11-10T22:23:35.960Z,65.70
2018-11-10T22:26:04.018Z,65.55
2018-11-10T22:28:32.166Z,65.71
2018-11-10T22:31:00.301Z,65.69
2018-11-10T22:33:28.332Z,65.58
2018-11-10T22:35:56.411Z,65.48
2018-11-10T22:38:24.502Z,65.44
2018-11-10T22:40:52.670Z,65.53
2018-11-10T22:43:20.657Z,65.44
2018-11-10T22:45:48.733Z,65.30
2018-11-10T22:48:16.834Z,65.22
2018-11-10T22:50:44.917Z,65.02
2018-11-10T22:53:12.993Z,65.09
2018-11-10T22:55:41.083Z,65.10
2018-11-10T22:58:09.166Z,65.10
2018-11-10T23:00:56.393Z,64.89
2018-11-10T23:03:24.532Z,64.91
2018-11-10T23:05:52.561Z,65.11
2018-11-10T23:08:20.649Z,65.13
2018-11-10T23:10:48.735Z,65.05
2018-11-10T23:13:16.813Z,65.03
2018-11-10T23:15:44.899Z,65.14
2018-11-10T23:18:12.983Z,65.17
2018-11-10T23:20:41.068Z,65.12
2018-11-10T23:23:09.252Z,65.16
2018-11-10T23:25:37.299Z,65.13
2018-11-10T23:28:05.487Z,65.02
2018-11-10T23:30:33.574Z,64.98
2018-11-10T23:33:01.649Z,65.15
2018-11-10T23:35:29.734Z,65.25
2018-11-10T23:37:57.847Z,65.20
2018-11-10T23:40:25.903Z,65.20
2018-11-10T23:42:53.973Z,65.02
2018-11-10T23:45:22.064Z,64.74
2018-11-10T23:47:50.142Z,65.01
2018-11-10T23:50:18.773Z,65.01
2018-11-10T23:52:46.996Z,64.87
2018-11-10T23:55:15.740Z,64.67
2018-11-10T23:57:43.827Z,64.89
